Time;durP1;ratioP1;P1;durP2;ratioP2;P2;SDS_P1;SDS_P2;PMS_P1;PMS_P2;Temp;Humidity;BMP_temperature;BMP_pressure;BME280_temperature;BME280_humidity;BME280_pressure;Samples;Min_cycle;Max_cycle;Signal;HPM_P1;HPM_P2
2021/05/04 00:01:45;;;;;;;1.93;1.80;;;22.60;47.90;;;;;;5031136;28;20817;-88
2021/05/04 00:04:14;;;;;;;1.70;1.50;;;22.60;48.00;;;;;;5045095;28;20159;-88
2021/05/04 00:06:44;;;;;;;1.93;1.80;;;22.60;47.90;;;;;;5026529;28;20195;-88
2021/05/04 00:09:10;;;;;;;1.77;1.67;;;22.60;47.90;;;;;;5010853;28;20457;-87
2021/05/04 00:11:41;;;;;;;2.00;1.80;;;22.60;47.90;;;;;;5026263;28;20465;-87
2021/05/04 00:14:06;;;;;;;4.30;2.00;;;22.60;47.90;;;;;;5010786;28;20697;-87
2021/05/04 00:16:32;;;;;;;2.17;1.97;;;22.60;47.90;;;;;;5026882;28;20504;-88
2021/05/04 00:18:58;;;;;;;2.27;1.80;;;22.60;47.90;;;;;;5044520;28;20172;-88
2021/05/04 00:21:24;;;;;;;2.43;1.73;;;22.60;47.90;;;;;;5027347;28;20649;-88
2021/05/04 00:23:49;;;;;;;1.53;1.43;;;22.60;48.00;;;;;;5045154;28;20205;-88
2021/05/04 00:26:18;;;;;;;2.37;1.90;;;22.60;48.00;;;;;;5026627;28;20179;-88
2021/05/04 00:28:44;;;;;;;2.80;1.90;;;22.60;48.00;;;;;;5044433;28;20171;-88
2021/05/04 00:31:10;;;;;;;2.70;1.80;;;22.60;48.00;;;;;;5026263;28;20826;-88
2021/05/04 00:33:36;;;;;;;2.13;1.70;;;22.60;48.00;;;;;;5026878;28;20175;-88
2021/05/04 00:36:05;;;;;;;1.90;1.70;;;22.60;48.00;;;;;;5044859;28;20164;-88
2021/05/04 00:38:30;;;;;;;1.70;1.60;;;22.60;48.00;;;;;;5027249;28;20179;-88
2021/05/04 00:40:56;;;;;;;2.10;1.90;;;22.60;48.00;;;;;;5026922;28;20430;-88
2021/05/04 00:43:30;;;;;;;3.17;2.00;;;22.60;48.00;;;;;;5026743;28;20180;-88
2021/05/04 00:45:56;;;;;;;2.17;1.50;;;22.60;48.00;;;;;;5026460;28;20225;-89
2021/05/04 00:48:22;;;;;;;1.80;1.60;;;22.50;48.00;;;;;;5043952;28;20410;-87
2021/05/04 00:50:51;;;;;;;1.97;1.40;;;22.50;48.00;;;;;;5026344;28;20462;-87
2021/05/04 00:53:18;;;;;;;1.67;1.57;;;22.50;48.00;;;;;;5043618;28;20468;-88
2021/05/04 00:55:47;;;;;;;2.20;1.93;;;22.50;48.00;;;;;;5026211;28;20406;-87
2021/05/04 00:58:13;;;;;;;2.00;1.67;;;22.50;48.00;;;;;;5026559;28;20410;-88
2021/05/04 01:00:41;;;;;;;1.93;1.60;;;22.50;48.00;;;;;;5026455;28;20478;-88
2021/05/04 01:03:09;;;;;;;1.80;1.60;;;22.50;48.60;;;;;;5026512;28;20421;-88
2021/05/04 01:05:38;;;;;;;2.40;2.03;;;22.50;48.00;;;;;;5044370;28;20438;-88
2021/05/04 01:08:07;;;;;;;2.03;1.63;;;22.50;47.90;;;;;;5026725;28;20758;-88
2021/05/04 01:10:33;;;;;;;1.70;1.60;;;22.60;48.00;;;;;;5026632;28;20908;-88
2021/05/04 01:12:58;;;;;;;1.83;1.73;;;22.60;47.90;;;;;;5043249;28;20406;-88
2021/05/04 01:15:25;;;;;;;1.90;1.57;;;22.60;47.90;;;;;;5025585;28;20164;-88
2021/05/04 01:17:55;;;;;;;1.87;1.67;;;22.60;47.90;;;;;;5025480;28;20167;-88
2021/05/04 01:20:22;;;;;;;2.13;1.60;;;22.60;47.90;;;;;;5025996;28;20924;-88
2021/05/04 01:22:48;;;;;;;1.60;1.43;;;22.50;47.90;;;;;;5024936;28;20433;-88
2021/05/04 01:25:15;;;;;;;1.90;1.80;;;22.50;47.90;;;;;;5025999;28;20498;-88
2021/05/04 01:27:41;;;;;;;2.33;2.03;;;22.50;47.90;;;;;;5042853;28;20537;-88
2021/05/04 01:30:09;;;;;;;2.10;1.67;;;22.50;47.90;;;;;;5043157;28;20415;-88
2021/05/04 01:32:34;;;;;;;1.83;1.40;;;22.50;47.90;;;;;;5025378;28;20833;-88
2021/05/04 01:35:00;;;;;;;1.97;1.50;;;22.50;47.90;;;;;;5025660;28;20411;-88
2021/05/04 01:37:26;;;;;;;2.03;1.70;;;22.50;47.90;;;;;;5043343;28;20645;-88
2021/05/04 01:39:52;;;;;;;3.90;1.70;;;22.50;47.90;;;;;;5026155;28;20218;-88
2021/05/04 01:42:20;;;;;;;1.40;1.30;;;22.50;47.90;;;;;;5026155;28;20183;-89
2021/05/04 01:44:47;;;;;;;2.10;1.90;;;22.50;47.90;;;;;;5043155;28;20445;-88
2021/05/04 01:47:13;;;;;;;1.57;1.40;;;22.50;47.90;;;;;;5025822;28;20411;-88
2021/05/04 01:49:40;;;;;;;1.50;1.40;;;22.50;47.90;;;;;;5042808;28;20444;-88
2021/05/04 01:52:11;;;;;;;1.93;1.80;;;22.50;47.90;;;;;;5025139;28;20533;-88
2021/05/04 01:54:42;;;;;;;1.50;1.40;;;22.50;48.00;;;;;;5043282;28;20391;-88
2021/05/04 01:57:09;;;;;;;1.97;1.47;;;22.50;48.00;;;;;;5025791;28;20411;-88
2021/05/04 01:59:35;;;;;;;2.07;1.77;;;22.50;48.50;;;;;;5026063;28;20782;-88
2021/05/04 02:02:01;;;;;;;1.50;1.40;;;22.50;48.00;;;;;;5043563;28;20417;-88
2021/05/04 02:04:30;;;;;;;1.50;1.40;;;22.50;48.00;;;;;;5025875;28;20233;-88
2021/05/04 02:06:59;;;;;;;2.00;1.80;;;22.50;48.00;;;;;;5043523;28;20191;-88
2021/05/04 02:09:25;;;;;;;2.23;1.40;;;22.50;48.00;;;;;;5042958;28;20424;-88
2021/05/04 02:11:50;;;;;;;2.10;1.80;;;22.40;48.00;;;;;;5025959;28;20461;-88
2021/05/04 02:14:16;;;;;;;1.90;1.70;;;22.50;48.00;;;;;;5029604;28;20274;-88
2021/05/04 02:16:42;;;;;;;2.20;1.70;;;22.40;48.00;;;;;;5029109;28;20175;-85
2021/05/04 02:19:08;;;;;;;1.40;1.30;;;22.40;48.00;;;;;;5048213;28;20176;-88
2021/05/04 02:21:33;;;;;;;2.27;1.50;;;22.40;48.00;;;;;;5029792;28;20237;-88
2021/05/04 02:23:59;;;;;;;1.70;1.40;;;22.40;48.00;;;;;;5029349;28;20191;-88
2021/05/04 02:26:25;;;;;;;1.93;1.73;;;22.40;48.00;;;;;;5048004;28;20167;-87
2021/05/04 02:28:50;;;;;;;2.07;1.47;;;22.50;48.10;;;;;;5049164;28;20564;-87
2021/05/04 02:31:16;;;;;;;2.90;1.70;;;22.40;48.00;;;;;;5032598;28;20199;-87
2021/05/04 02:33:45;;;;;;;1.83;1.70;;;22.50;48.10;;;;;;5033784;28;20182;-86
2021/05/04 02:36:11;;;;;;;1.83;1.60;;;22.40;48.00;;;;;;5049195;28;20422;-86
2021/05/04 02:38:37;;;;;;;1.70;1.37;;;22.40;48.00;;;;;;5031627;28;20413;-87
2021/05/04 02:41:05;;;;;;;1.70;1.57;;;22.40;48.00;;;;;;5049611;28;20496;-86
2021/05/04 02:43:31;;;;;;;1.70;1.60;;;22.40;48.00;;;;;;5049464;28;20824;-87
2021/05/04 02:46:00;;;;;;;1.93;1.80;;;22.40;48.00;;;;;;5049741;28;20505;-87
2021/05/04 02:48:26;;;;;;;1.73;1.50;;;22.40;48.00;;;;;;5048722;28;20418;-87
2021/05/04 02:50:52;;;;;;;2.10;1.50;;;22.40;48.00;;;;;;5047190;28;20458;-87
2021/05/04 02:53:19;;;;;;;1.33;1.23;;;22.30;47.90;;;;;;5048227;28;20441;-87
2021/05/04 02:55:45;;;;;;;2.07;1.87;;;22.40;48.00;;;;;;5029986;28;20418;-87
2021/05/04 02:58:12;;;;;;;1.40;1.30;;;22.40;48.00;;;;;;5029373;28;20551;-87
2021/05/04 03:00:38;;;;;;;2.00;1.60;;;22.40;48.00;;;;;;5047898;28;20410;-87
2021/05/04 03:03:04;;;;;;;1.90;1.53;;;22.40;48.10;;;;;;5030243;28;20418;-87
2021/05/04 03:05:30;;;;;;;1.63;1.53;;;22.40;48.00;;;;;;5047713;28;20470;-87
2021/05/04 03:08:02;;;;;;;2.23;1.50;;;22.40;48.00;;;;;;5029331;28;20418;-88
2021/05/04 03:10:29;;;;;;;2.47;1.33;;;22.40;48.00;;;;;;5046349;28;20442;-87
2021/05/04 03:12:55;;;;;;;1.70;1.60;;;22.40;48.10;;;;;;5029048;28;20473;-87
2021/05/04 03:15:21;;;;;;;1.80;1.33;;;22.40;48.10;;;;;;5047016;28;20411;-87
2021/05/04 03:17:47;;;;;;;1.60;1.30;;;22.40;48.10;;;;;;5046587;28;20179;-88
2021/05/04 03:20:13;;;;;;;1.60;1.30;;;22.40;48.10;;;;;;5029312;28;20182;-87
2021/05/04 03:22:39;;;;;;;1.40;1.30;;;22.30;48.00;;;;;;5046923;28;20247;-87
2021/05/04 03:25:05;;;;;;;1.77;1.57;;;22.40;48.10;;;;;;5029157;28;20778;-87
2021/05/04 03:27:31;;;;;;;3.70;1.30;;;22.40;48.10;;;;;;5047200;28;20421;-87
2021/05/04 03:29:57;;;;;;;1.50;1.40;;;22.30;48.00;;;;;;5029889;28;20437;-87
2021/05/04 03:32:23;;;;;;;3.20;1.30;;;22.30;48.00;;;;;;5029065;28;20462;-87
2021/05/04 03:34:48;;;;;;;1.57;1.30;;;22.30;48.10;;;;;;5048937;28;20178;-87
2021/05/04 03:37:21;;;;;;;1.57;1.40;;;22.30;48.00;;;;;;5047196;28;20171;-87
2021/05/04 03:39:47;;;;;;;1.80;1.70;;;22.30;48.10;;;;;;5046205;28;20197;-87
2021/05/04 03:42:12;;;;;;;1.53;1.30;;;22.30;48.10;;;;;;5046536;28;20473;-86
2021/05/04 03:44:38;;;;;;;1.80;1.50;;;22.30;48.10;;;;;;5028687;28;20184;-86
2021/05/04 03:47:04;;;;;;;1.50;1.40;;;22.30;48.10;;;;;;5028592;28;20195;-86
2021/05/04 03:49:30;;;;;;;1.93;1.40;;;22.30;48.10;;;;;;5029801;28;20202;-86
2021/05/04 03:51:55;;;;;;;2.27;2.07;;;22.30;48.10;;;;;;5028069;28;20195;-86
2021/05/04 03:54:24;;;;;;;1.53;1.43;;;22.30;48.10;;;;;;5028101;28;20553;-87
2021/05/04 03:56:53;;;;;;;1.70;1.47;;;22.30;48.10;;;;;;5028291;28;20218;-86
2021/05/04 03:59:19;;;;;;;1.70;1.50;;;22.30;48.20;;;;;;5028213;28;20433;-86
2021/05/04 04:01:44;;;;;;;1.70;1.50;;;22.20;48.10;;;;;;5028476;28;20426;-87
2021/05/04 04:04:10;;;;;;;1.63;1.40;;;22.20;48.10;;;;;;5028334;28;20202;-87
2021/05/04 04:06:36;;;;;;;1.73;1.50;;;22.30;48.20;;;;;;5030255;28;20184;-85
2021/05/04 04:09:02;;;;;;;2.43;1.50;;;22.20;48.10;;;;;;5031917;28;20190;-85
2021/05/04 04:11:28;;;;;;;1.93;1.40;;;22.20;48.10;;;;;;5032030;28;20238;-84
2021/05/04 04:13:53;;;;;;;3.40;1.50;;;22.20;48.10;;;;;;5030881;28;20179;-85
2021/05/04 04:16:25;;;;;;;1.80;1.57;;;22.20;48.20;;;;;;5031603;28;20289;-85
2021/05/04 04:18:52;;;;;;;1.83;1.63;;;22.20;48.10;;;;;;5031368;28;20180;-85
2021/05/04 04:21:17;;;;;;;1.60;1.50;;;22.20;48.10;;;;;;5032224;28;20430;-85
2021/05/04 04:23:43;;;;;;;1.47;1.30;;;22.20;48.10;;;;;;5050781;28;20446;-84
2021/05/04 04:26:09;;;;;;;1.50;1.30;;;22.20;48.20;;;;;;5027773;28;20203;-84
2021/05/04 04:28:35;;;;;;;1.90;1.80;;;22.20;48.20;;;;;;5031313;28;20202;-84
2021/05/04 04:31:03;;;;;;;2.10;1.40;;;22.20;48.10;;;;;;5012999;28;20242;-84
2021/05/04 04:33:29;;;;;;;1.73;1.57;;;22.20;48.10;;;;;;5029743;28;20173;-84
2021/05/04 04:35:55;;;;;;;1.50;1.40;;;22.20;48.10;;;;;;4997025;28;20425;-85
2021/05/04 04:38:24;;;;;;;1.43;1.33;;;22.20;48.10;;;;;;5030278;28;20650;-86
2021/05/04 04:40:49;;;;;;;1.57;1.47;;;22.20;48.10;;;;;;5011831;28;20789;-85
2021/05/04 04:43:16;;;;;;;1.70;1.60;;;22.30;48.20;;;;;;5030344;28;20411;-84
2021/05/04 04:45:42;;;;;;;1.20;1.00;;;22.20;48.10;;;;;;5011121;28;20438;-85
2021/05/04 04:48:47;;;;;;;1.83;1.23;;;22.30;48.10;;;;;;5011308;28;20180;-85
2021/05/04 04:51:13;;;;;;;1.67;1.40;;;22.30;48.00;;;;;;5012129;28;20466;-85
2021/05/04 04:53:39;;;;;;;2.67;2.47;;;22.30;48.10;;;;;;5028679;28;20462;-84
2021/05/04 04:56:05;;;;;;;1.40;1.30;;;22.30;48.00;;;;;;5011573;28;20237;-85
2021/05/04 04:58:31;;;;;;;1.40;1.30;;;22.30;48.00;;;;;;5013034;28;20191;-85
2021/05/04 05:00:57;;;;;;;1.30;1.20;;;22.30;47.90;;;;;;5012209;28;20419;-85
2021/05/04 05:03:24;;;;;;;1.77;1.43;;;22.30;47.90;;;;;;5011139;28;20427;-85
2021/05/04 05:05:51;;;;;;;1.30;1.17;;;22.30;47.80;;;;;;5029596;28;20186;-85
2021/05/04 05:08:17;;;;;;;1.40;1.20;;;22.40;47.90;;;;;;5031597;28;20460;-85
2021/05/04 05:10:43;;;;;;;1.50;1.30;;;22.40;47.80;;;;;;5030759;28;20435;-86
2021/05/04 05:13:11;;;;;;;1.47;1.37;;;22.40;47.80;;;;;;5013078;28;20212;-85
2021/05/04 05:15:40;;;;;;;2.07;1.50;;;22.40;47.80;;;;;;5014148;28;20439;-85
2021/05/04 05:18:06;;;;;;;1.40;1.10;;;22.40;47.80;;;;;;5031392;28;20412;-85
2021/05/04 05:20:35;;;;;;;1.47;1.20;;;22.40;47.80;;;;;;5014539;28;20473;-85
2021/05/04 05:23:04;;;;;;;1.50;1.40;;;22.40;47.70;;;;;;5031907;28;20494;-85
2021/05/04 05:25:30;;;;;;;1.30;1.20;;;22.40;47.70;;;;;;5011483;28;20420;-86
2021/05/04 05:34:40;;;;;;;1.60;1.50;;;22.40;47.70;;;;;;5028918;28;20371;-86
2021/05/04 05:37:10;;;;;;;1.67;1.50;;;22.30;47.70;;;;;;5010383;28;20419;-86
2021/05/04 05:39:37;;;;;;;1.70;1.60;;;22.40;47.70;;;;;;5011235;28;20442;-84
2021/05/04 05:42:04;;;;;;;2.13;1.33;;;22.40;47.70;;;;;;5027546;28;20414;-86
2021/05/04 05:44:31;;;;;;;1.60;1.50;;;22.40;47.70;;;;;;5010317;28;20541;-86
2021/05/04 05:46:56;;;;;;;1.90;1.70;;;22.40;47.70;;;;;;5009122;28;20451;-86
2021/05/04 05:52:44;;;;;;;1.67;1.30;;;22.60;47.70;;;;;;5028670;28;20246;-85
2021/05/04 05:55:10;;;;;;;10.63;1.67;;;22.40;47.60;;;;;;5031269;28;20438;-85
2021/05/04 05:57:36;;;;;;;1.60;1.30;;;22.50;47.70;;;;;;5037984;28;20248;-86
2021/05/04 06:00:04;;;;;;;1.40;1.30;;;22.40;47.60;;;;;;5034835;28;20418;-85
2021/05/04 06:02:30;;;;;;;1.77;1.67;;;22.50;47.60;;;;;;5036615;28;20450;-85
2021/05/04 06:04:56;;;;;;;2.00;1.60;;;22.50;47.60;;;;;;5029666;28;20427;-84
2021/05/04 06:07:22;;;;;;;1.47;1.37;;;22.50;47.60;;;;;;5012999;28;20419;-84
2021/05/04 06:09:48;;;;;;;1.70;1.50;;;22.50;47.60;;;;;;5031409;28;20176;-85
2021/05/04 06:12:18;;;;;;;2.07;1.40;;;22.50;47.60;;;;;;5015129;28;20192;-84
2021/05/04 06:14:46;;;;;;;2.00;1.50;;;22.50;47.60;;;;;;5015406;28;20192;-83
2021/05/04 06:17:15;;;;;;;1.30;1.00;;;22.60;47.80;;;;;;5011443;28;20427;-82
2021/05/04 06:19:43;;;;;;;2.40;1.37;;;22.60;47.80;;;;;;5011937;28;20418;-83
2021/05/04 06:22:12;;;;;;;1.57;1.17;;;22.60;47.70;;;;;;5029290;28;20423;-82
2021/05/04 06:24:46;;;;;;;1.60;1.30;;;22.70;47.70;;;;;;5012962;28;20428;-83
2021/05/04 06:27:13;;;;;;;2.50;1.33;;;22.70;47.70;;;;;;5015387;28;20407;-83
2021/05/04 06:29:45;;;;;;;2.20;1.20;;;22.80;47.80;;;;;;5016426;28;20430;-82
2021/05/04 06:32:13;;;;;;;1.97;1.20;;;22.70;47.70;;;;;;4999121;28;20462;-83
2021/05/04 06:34:43;;;;;;;1.50;1.40;;;22.80;47.80;;;;;;5015007;28;20412;-83
2021/05/04 06:37:17;;;;;;;1.97;1.23;;;22.80;47.60;;;;;;5015243;28;20450;-83
2021/05/04 06:39:45;;;;;;;1.77;1.20;;;22.80;47.60;;;;;;5032701;28;20408;-83
2021/05/04 06:42:11;;;;;;;2.40;1.50;;;22.90;47.90;;;;;;5015859;28;20415;-82
2021/05/04 06:44:39;;;;;;;1.70;1.30;;;22.80;47.60;;;;;;5032782;28;20454;-84
2021/05/04 06:47:05;;;;;;;1.50;1.40;;;22.90;47.80;;;;;;5015356;28;20426;-83
2021/05/04 06:49:48;;;;;;;1.40;1.17;;;23.00;47.90;;;;;;5018151;28;20435;-83
2021/05/04 06:52:24;;;;;;;;;;;;;;;;;;;;;
2021/05/04 06:54:54;;;;;;;3.80;1.27;;;23.00;47.60;;;;;;5032063;28;20458;-82
2021/05/04 06:57:20;;;;;;;1.10;0.97;;;23.00;47.60;;;;;;5016503;28;20407;-86
2021/05/04 06:59:46;;;;;;;1.40;1.30;;;23.00;47.60;;;;;;4997259;28;20445;-83
2021/05/04 07:02:12;;;;;;;1.43;1.33;;;23.00;47.70;;;;;;5030101;28;20407;-83
2021/05/04 07:05:21;;;;;;;1.93;1.30;;;23.00;47.70;;;;;;5013387;28;20264;-83
2021/05/04 07:07:47;;;;;;;1.50;1.17;;;23.10;47.70;;;;;;5013870;28;20181;-81
2021/05/04 07:10:14;;;;;;;1.30;1.10;;;23.00;47.80;;;;;;5011995;28;20415;-82
2021/05/04 07:12:58;;;;;;;3.10;1.37;;;23.10;47.80;;;;;;5032687;28;20485;-81
2021/05/04 07:15:53;;;;;;;1.30;1.20;;;23.10;47.70;;;;;;5032659;28;20394;-81
2021/05/04 07:18:24;;;;;;;1.43;1.23;;;23.00;47.60;;;;;;5012834;28;20495;-82
2021/05/04 07:20:57;;;;;;;1.77;1.20;;;23.10;47.70;;;;;;5013526;28;20473;-83
2021/05/04 07:23:24;;;;;;;1.20;1.10;;;23.10;47.90;;;;;;5011669;28;20860;-82
2021/05/04 07:25:52;;;;;;;1.47;1.10;;;23.20;47.90;;;;;;5011153;28;20196;-82
2021/05/04 07:28:18;;;;;;;2.27;1.73;;;23.20;47.90;;;;;;5010924;28;20477;-83
2021/05/04 07:30:44;;;;;;;1.10;0.93;;;23.10;47.80;;;;;;5010610;28;20434;-82
2021/05/04 07:33:13;;;;;;;5.00;1.33;;;23.20;47.90;;;;;;5010709;28;20423;-81
2021/05/04 07:35:39;;;;;;;1.30;1.20;;;23.20;47.90;;;;;;5011286;28;20173;-83
2021/05/04 07:38:05;;;;;;;1.43;1.03;;;23.10;47.80;;;;;;5029993;28;20432;-83
2021/05/04 07:40:31;;;;;;;1.20;1.10;;;23.20;47.80;;;;;;5013981;28;20177;-82
2021/05/04 07:42:57;;;;;;;2.43;1.40;;;23.20;47.70;;;;;;5030289;28;20494;-82
2021/05/04 07:45:23;;;;;;;1.80;1.23;;;23.20;47.90;;;;;;5029658;28;20967;-82
2021/05/04 07:48:01;;;;;;;1.33;1.23;;;23.20;47.80;;;;;;5014579;28;20419;-85
2021/05/04 08:03:17;;;;;;;1.70;1.20;;;23.20;47.70;;;;;;4978485;28;20412;-83
2021/05/04 08:05:48;;;;;;;2.07;1.30;;;23.30;47.70;;;;;;4990423;28;20925;-84
2021/05/04 08:08:19;;;;;;;1.10;0.93;;;23.30;47.90;;;;;;5007554;28;20389;-84
2021/05/04 08:10:46;;;;;;;1.50;1.00;;;23.30;48.30;;;;;;4990475;28;20404;-83
2021/05/04 08:13:24;;;;;;;1.17;1.03;;;23.30;48.00;;;;;;5007656;28;20511;-83
2021/05/04 08:15:54;;;;;;;1.77;1.00;;;23.20;47.60;;;;;;5007585;28;20435;-83
2021/05/04 08:18:32;;;;;;;3.23;1.33;;;23.30;47.80;;;;;;4991308;28;20463;-84
2021/05/04 08:21:01;;;;;;;1.13;1.00;;;23.30;47.70;;;;;;5006594;28;20536;-84
2021/05/04 08:23:27;;;;;;;1.27;1.03;;;23.40;48.00;;;;;;4994132;28;20416;-85
2021/05/04 08:25:54;;;;;;;1.50;1.17;;;23.30;47.80;;;;;;4987540;28;20432;-83
2021/05/04 08:28:21;;;;;;;1.40;1.20;;;23.40;47.90;;;;;;4987441;28;20495;-84
2021/05/04 08:30:46;;;;;;;3.20;1.23;;;23.40;47.80;;;;;;4998088;28;20427;-84
2021/05/04 08:33:12;;;;;;;1.60;1.50;;;23.40;47.90;;;;;;5023647;28;20447;-83
2021/05/04 08:35:40;;;;;;;1.10;1.00;;;23.40;47.90;;;;;;5007160;28;20207;-84
2021/05/04 08:38:10;;;;;;;1.60;1.13;;;23.40;47.80;;;;;;5008444;28;20202;-83
2021/05/04 08:40:39;;;;;;;1.60;1.03;;;23.40;47.90;;;;;;5007447;28;20426;-84
2021/05/04 08:43:04;;;;;;;2.10;1.10;;;23.40;47.90;;;;;;5026242;28;20415;-84
2021/05/04 08:45:34;;;;;;;1.20;1.10;;;23.40;47.80;;;;;;5012696;28;20442;-84
2021/05/04 08:48:04;;;;;;;1.10;0.90;;;23.40;47.80;;;;;;5029741;28;20175;-83
2021/05/04 08:50:38;;;;;;;3.40;1.20;;;23.40;47.70;;;;;;5037823;28;20459;-83
2021/05/04 08:53:05;;;;;;;1.40;1.10;;;23.40;47.80;;;;;;5024773;28;20518;-83
2021/05/04 08:55:30;;;;;;;1.93;1.00;;;23.40;47.90;;;;;;5026540;28;20417;-83
2021/05/04 08:57:56;;;;;;;2.00;1.23;;;23.40;47.90;;;;;;5029512;28;20434;-83
2021/05/04 09:00:22;;;;;;;1.30;0.90;;;23.60;47.90;;;;;;5028615;28;20239;-83
2021/05/04 09:03:09;;;;;;;1.40;1.07;;;23.40;47.80;;;;;;5025814;28;20210;-83
2021/05/04 09:14:20;;;;;;;2.53;1.10;;;23.50;47.80;;;;;;4988554;28;20545;-82
2021/05/04 09:17:30;;;;;;;1.30;1.20;;;23.50;47.90;;;;;;4990588;28;20496;-81
2021/05/04 09:22:43;;;;;;;1.20;0.93;;;23.40;47.90;;;;;;4991286;28;20409;-81
2021/05/04 09:25:30;;;;;;;1.23;0.93;;;23.40;47.90;;;;;;4987677;28;20420;-81
2021/05/04 09:28:10;;;;;;;1.40;1.00;;;23.40;47.80;;;;;;4971030;28;20432;-82
2021/05/04 09:30:37;;;;;;;1.27;0.93;;;23.50;47.90;;;;;;4990233;28;20416;-81
2021/05/04 09:33:07;;;;;;;1.30;1.00;;;23.40;47.90;;;;;;4968773;28;20473;-82
2021/05/04 09:35:33;;;;;;;1.47;0.90;;;23.50;47.90;;;;;;4970378;28;21002;-82
2021/05/04 09:38:06;;;;;;;1.63;1.20;;;23.40;47.90;;;;;;4986589;28;20453;-81
2021/05/04 09:40:37;;;;;;;1.30;1.10;;;23.50;47.90;;;;;;4971194;28;20440;-81
2021/05/04 09:43:18;;;;;;;1.27;0.93;;;23.40;47.80;;;;;;4987630;28;20488;-81
2021/05/04 09:45:54;;;;;;;1.57;1.07;;;23.40;47.70;;;;;;5023554;28;20425;-81
2021/05/04 09:48:34;;;;;;;1.47;0.97;;;23.40;47.70;;;;;;5029977;28;20417;-81
2021/05/04 09:51:04;;;;;;;1.17;1.00;;;23.40;47.80;;;;;;5046465;28;20417;-81
2021/05/04 09:53:50;;;;;;;1.90;1.20;;;23.40;47.80;;;;;;5029406;28;20453;-81
2021/05/04 09:56:33;;;;;;;1.87;1.10;;;23.40;47.70;;;;;;5046592;28;20383;-82
2021/05/04 09:59:03;;;;;;;1.83;1.13;;;23.40;47.80;;;;;;5029682;28;20448;-81
2021/05/04 10:01:32;;;;;;;1.40;1.23;;;23.40;47.70;;;;;;5029637;28;20426;-81
2021/05/04 10:04:00;;;;;;;1.67;1.10;;;23.40;47.70;;;;;;5047196;28;20406;-82
2021/05/04 10:06:27;;;;;;;1.23;1.13;;;23.40;47.70;;;;;;5047730;28;20414;-81
2021/05/04 10:08:53;;;;;;;1.40;1.30;;;23.40;47.70;;;;;;5048005;28;20425;-82
2021/05/04 10:11:21;;;;;;;1.30;1.00;;;23.40;47.80;;;;;;5032820;28;20522;-82
2021/05/04 10:13:51;;;;;;;1.40;1.10;;;23.50;47.70;;;;;;5033862;28;20172;-81
2021/05/04 10:16:25;;;;;;;1.33;1.20;;;23.40;47.70;;;;;;5048437;28;20395;-81
2021/05/04 10:18:52;;;;;;;3.63;1.23;;;23.40;47.60;;;;;;5033140;28;20442;-81
2021/05/04 10:21:18;;;;;;;1.30;1.00;;;23.40;47.70;;;;;;5031702;28;20599;-81
2021/05/04 10:23:49;;;;;;;1.43;1.00;;;23.40;47.70;;;;;;5048193;28;20411;-81
2021/05/04 10:26:18;;;;;;;1.63;1.37;;;23.40;47.70;;;;;;5031353;28;20422;-81
2021/05/04 10:28:55;;;;;;;1.30;1.10;;;23.40;47.80;;;;;;5027552;28;20509;-82
2021/05/04 10:31:39;;;;;;;1.40;1.00;;;23.40;47.70;;;;;;5044678;28;20465;-83
2021/05/04 10:34:24;;;;;;;1.30;1.13;;;23.40;47.70;;;;;;5029462;28;20402;-83
2021/05/04 10:36:58;;;;;;;4.23;1.50;;;23.40;47.90;;;;;;5048671;28;20413;-82
2021/05/04 10:39:37;;;;;;;1.30;1.20;;;23.40;47.70;;;;;;5049792;28;20473;-82
2021/05/04 10:42:05;;;;;;;2.10;1.20;;;23.40;47.70;;;;;;5032296;28;20425;-82
2021/05/04 10:44:51;;;;;;;3.30;1.30;;;23.40;47.70;;;;;;5032599;28;20418;-81
2021/05/04 10:47:46;;;;;;;1.90;1.33;;;23.40;47.70;;;;;;5012690;28;20816;-81
2021/05/04 10:50:23;;;;;;;6.00;1.93;;;23.50;47.70;;;;;;5029441;28;20387;-81
2021/05/04 10:52:49;;;;;;;2.17;1.53;;;23.40;47.70;;;;;;5027849;28;20556;-82
2021/05/04 10:55:23;;;;;;;4.60;1.60;;;23.40;47.90;;;;;;5012310;28;20442;-82
2021/05/04 10:58:00;;;;;;;3.53;2.03;;;23.40;47.70;;;;;;5027615;28;20187;-82
2021/05/04 11:00:48;;;;;;;4.00;1.60;;;23.40;48.00;;;;;;5029956;28;20423;-83
2021/05/04 11:03:29;;;;;;;1.37;1.10;;;23.40;47.70;;;;;;5047158;28;20460;-83
2021/05/04 11:05:59;;;;;;;1.60;1.30;;;23.40;47.90;;;;;;5042234;28;20426;-83
2021/05/04 11:08:47;;;;;;;2.60;1.50;;;23.40;47.70;;;;;;5026636;28;20430;-83
2021/05/04 11:11:26;;;;;;;1.70;1.40;;;23.40;47.70;;;;;;5025531;28;20486;-83
2021/05/04 11:14:01;;;;;;;4.10;1.50;;;23.40;47.90;;;;;;5008561;28;20423;-83
2021/05/04 11:16:40;;;;;;;2.93;1.50;;;23.40;48.30;;;;;;5007695;28;20454;-83
2021/05/04 11:19:11;;;;;;;1.93;1.23;;;23.40;47.80;;;;;;5008898;28;20498;-83
2021/05/04 11:21:48;;;;;;;2.53;1.57;;;23.40;47.80;;;;;;5008050;28;20485;-82
2021/05/04 11:24:16;;;;;;;3.60;1.63;;;23.40;47.70;;;;;;5026856;28;20487;-83
2021/05/04 11:26:53;;;;;;;7.77;2.07;;;23.40;47.70;;;;;;5025773;28;20411;-83
2021/05/04 11:29:21;;;;;;;4.90;3.40;;;23.40;47.90;;;;;;5007754;28;20423;-82
2021/05/04 11:31:54;;;;;;;9.30;4.40;;;23.30;47.70;;;;;;5008383;28;20455;-83
2021/05/04 11:34:42;;;;;;;15.23;5.70;;;23.40;47.80;;;;;;5007621;28;20939;-83
2021/05/04 11:37:12;;;;;;;15.37;7.23;;;23.40;47.70;;;;;;5008363;28;20818;-83
2021/05/04 11:40:02;;;;;;;22.20;8.47;;;23.30;47.70;;;;;;5026420;28;20439;-83
2021/05/04 11:42:40;;;;;;;29.60;13.90;;;23.40;47.80;;;;;;5025759;28;20407;-83
2021/05/04 11:45:06;;;;;;;26.87;10.93;;;23.30;47.90;;;;;;5007252;28;20509;-83
2021/05/04 11:47:33;;;;;;;33.17;14.40;;;23.30;47.80;;;;;;5009712;28;20544;-83
2021/05/04 11:50:05;;;;;;;34.70;16.90;;;23.30;47.70;;;;;;5010031;28;20506;-83
2021/05/04 11:52:31;;;;;;;46.50;16.13;;;23.30;47.70;;;;;;5008875;28;20459;-83
2021/05/04 11:55:17;;;;;;;41.27;14.40;;;23.30;47.80;;;;;;5026660;28;20408;-83
2021/05/04 11:57:46;;;;;;;39.17;15.80;;;23.30;47.70;;;;;;5008143;28;20491;-84
2021/05/04 12:00:16;;;;;;;47.00;19.80;;;23.20;47.70;;;;;;5008593;28;20410;-83
2021/05/04 12:02:42;;;;;;;40.40;16.40;;;23.20;47.80;;;;;;5008236;28;20752;-83
2021/05/04 12:05:08;;;;;;;46.17;17.57;;;23.20;47.90;;;;;;5025010;28;20423;-83
2021/05/04 12:07:44;;;;;;;37.27;16.43;;;23.10;47.70;;;;;;5008426;28;20438;-85
2021/05/04 12:10:16;;;;;;;38.07;16.70;;;23.10;47.80;;;;;;5008702;28;20917;-82
2021/05/04 12:12:43;;;;;;;40.27;16.63;;;23.10;47.80;;;;;;5008512;28;20473;-83
2021/05/04 12:15:11;;;;;;;41.93;17.53;;;23.10;47.90;;;;;;5008571;28;20469;-83
2021/05/04 12:17:40;;;;;;;48.93;18.40;;;23.10;47.90;;;;;;5028272;28;20426;-83
2021/05/04 12:20:18;;;;;;;56.17;19.47;;;23.10;48.10;;;;;;5025753;28;20962;-83
2021/05/04 12:22:48;;;;;;;42.43;19.13;;;23.10;47.90;;;;;;5025767;28;20486;-83
2021/05/04 12:25:21;;;;;;;37.80;16.40;;;23.10;48.00;;;;;;5007789;28;20427;-83
2021/05/04 12:27:46;;;;;;;40.90;18.10;;;23.10;48.00;;;;;;5008138;28;20437;-83
2021/05/04 12:30:18;;;;;;;44.73;17.53;;;23.00;48.00;;;;;;5024465;28;20988;-83
2021/05/04 12:32:44;;;;;;;38.80;17.50;;;23.10;48.00;;;;;;5007177;28;20458;-83
2021/05/04 12:35:21;;;;;;;35.77;16.60;;;23.00;48.10;;;;;;5025580;28;20415;-83
2021/05/04 12:37:49;;;;;;;36.70;16.47;;;23.10;48.00;;;;;;5026411;28;20450;-82
2021/05/04 12:40:20;;;;;;;33.80;17.30;;;23.00;47.90;;;;;;5026960;28;20442;-82
2021/05/04 12:42:48;;;;;;;37.73;16.63;;;23.00;47.90;;;;;;5028226;28;20819;-82
2021/05/04 12:45:15;;;;;;;33.13;15.80;;;23.00;48.10;;;;;;5028574;28;20494;-81
2021/05/04 12:47:54;;;;;;;30.30;15.17;;;23.00;47.90;;;;;;5010304;28;20423;-82
2021/05/04 12:50:31;;;;;;;42.20;18.40;;;23.00;47.90;;;;;;5027436;28;20464;-81
2021/05/04 12:52:57;;;;;;;42.43;16.97;;;23.00;47.90;;;;;;5027320;28;20447;-82
2021/05/04 12:56:00;;;;;;;41.37;17.33;;;23.00;48.20;;;;;;5009512;28;20430;-82
2021/05/04 12:58:26;;;;;;;32.70;13.80;;;23.00;47.90;;;;;;5027859;28;20184;-82
2021/05/04 13:01:12;;;;;;;30.27;13.23;;;22.90;47.90;;;;;;5010278;28;20426;-81
2021/05/04 13:03:45;;;;;;;39.60;15.80;;;23.00;48.50;;;;;;5009920;28;20180;-81
2021/05/04 13:06:37;;;;;;;29.13;14.03;;;23.00;48.20;;;;;;5027213;28;20407;-81
2021/05/04 13:32:10;;;;;;;31.20;15.57;;;22.90;47.90;;;;;;5024111;28;20435;-83
2021/05/04 13:34:35;;;;;;;30.77;14.20;;;22.90;48.00;;;;;;5021771;28;20611;-82
2021/05/04 13:37:03;;;;;;;29.77;13.80;;;22.90;48.20;;;;;;5006223;28;20466;-82
2021/05/04 13:47:33;;;;;;;34.77;14.73;;;23.00;48.20;;;;;;5022020;28;20422;-83
2021/05/04 13:49:59;;;;;;;26.03;11.73;;;23.00;48.20;;;;;;5004702;28;20430;-82
2021/05/04 13:52:25;;;;;;;25.50;11.47;;;23.00;48.00;;;;;;5004341;28;20558;-84
2021/05/04 13:54:51;;;;;;;29.67;14.53;;;23.10;48.30;;;;;;5020660;28;20423;-84
2021/05/04 13:57:18;;;;;;;24.00;13.10;;;23.10;48.10;;;;;;5021361;28;20694;-84
2021/05/04 13:59:48;;;;;;;25.50;13.10;;;23.20;48.30;;;;;;5021230;28;20180;-84
2021/05/04 14:27:14;;;;;;;18.63;10.63;;;23.30;48.10;;;;;;5053467;28;20413;-83
2021/05/04 14:29:39;;;;;;;23.80;12.30;;;23.30;48.20;;;;;;5036025;28;20409;-84